sensor_id;sensor_type;location;lat;lon;timestamp;temperature;humidity
79020;DHT22;68422;44.714;37.756;2023-04-03T00:00:48;25.71;39.58
79020;DHT22;68422;44.714;37.756;2023-04-03T00:01:50;25.71;39.59
79020;DHT22;68422;44.714;37.756;2023-04-03T00:02:52;25.71;39.53
79020;DHT22;68422;44.714;37.756;2023-04-03T00:03:54;25.74;39.48
79020;DHT22;68422;44.714;37.756;2023-04-03T00:04:56;25.74;39.57
79020;DHT22;68422;44.714;37.756;2023-04-03T00:05:58;25.68;39.60
79020;DHT22;68422;44.714;37.756;2023-04-03T00:06:59;25.71;39.58
79020;DHT22;68422;44.714;37.756;2023-04-03T00:08:01;25.71;39.55
79020;DHT22;68422;44.714;37.756;2023-04-03T00:09:03;25.73;39.59
79020;DHT22;68422;44.714;37.756;2023-04-03T00:10:05;25.70;39.60
79020;DHT22;68422;44.714;37.756;2023-04-03T00:11:06;25.71;39.64
79020;DHT22;68422;44.714;37.756;2023-04-03T00:12:08;25.73;39.54
79020;DHT22;68422;44.714;37.756;2023-04-03T00:13:10;25.73;39.58
79020;DHT22;68422;44.714;37.756;2023-04-03T00:14:11;25.73;39.54
79020;DHT22;68422;44.714;37.756;2023-04-03T00:15:13;25.74;39.51
79020;DHT22;68422;44.714;37.756;2023-04-03T00:16:14;25.78;39.51
79020;DHT22;68422;44.714;37.756;2023-04-03T00:17:16;25.75;39.43
79020;DHT22;68422;44.714;37.756;2023-04-03T00:18:17;25.78;39.51
79020;DHT22;68422;44.714;37.756;2023-04-03T00:19:19;25.77;39.52
79020;DHT22;68422;44.714;37.756;2023-04-03T00:20:21;25.78;39.47
79020;DHT22;68422;44.714;37.756;2023-04-03T00:21:22;25.73;39.48
79020;DHT22;68422;44.714;37.756;2023-04-03T00:22:24;25.77;39.44
79020;DHT22;68422;44.714;37.756;2023-04-03T00:23:27;25.80;39.42
79020;DHT22;68422;44.714;37.756;2023-04-03T00:24:29;25.81;39.37
79020;DHT22;68422;44.714;37.756;2023-04-03T00:25:30;25.78;39.39
79020;DHT22;68422;44.714;37.756;2023-04-03T00:26:32;25.77;39.49
79020;DHT22;68422;44.714;37.756;2023-04-03T00:27:36;25.73;39.50
79020;DHT22;68422;44.714;37.756;2023-04-03T00:28:38;25.74;39.55
79020;DHT22;68422;44.714;37.756;2023-04-03T00:29:39;25.73;39.44
79020;DHT22;68422;44.714;37.756;2023-04-03T00:30:41;25.77;39.47
79020;DHT22;68422;44.714;37.756;2023-04-03T00:31:42;25.74;39.54
79020;DHT22;68422;44.714;37.756;2023-04-03T00:32:44;25.75;39.48
79020;DHT22;68422;44.714;37.756;2023-04-03T00:33:45;25.80;39.39
79020;DHT22;68422;44.714;37.756;2023-04-03T00:34:47;25.77;39.38
79020;DHT22;68422;44.714;37.756;2023-04-03T00:35:49;25.80;39.38
79020;DHT22;68422;44.714;37.756;2023-04-03T00:36:50;25.81;39.33
79020;DHT22;68422;44.714;37.756;2023-04-03T00:37:53;25.82;39.36
79020;DHT22;68422;44.714;37.756;2023-04-03T00:38:55;25.84;39.36
79020;DHT22;68422;44.714;37.756;2023-04-03T00:39:56;25.87;39.29
79020;DHT22;68422;44.714;37.756;2023-04-03T00:40:58;25.85;39.28
79020;DHT22;68422;44.714;37.756;2023-04-03T00:41:59;25.84;39.26
79020;DHT22;68422;44.714;37.756;2023-04-03T00:43:01;25.78;39.46
79020;DHT22;68422;44.714;37.756;2023-04-03T00:45:42;25.74;39.43
79020;DHT22;68422;44.714;37.756;2023-04-03T00:46:44;25.77;39.45
79020;DHT22;68422;44.714;37.756;2023-04-03T00:47:46;25.71;39.56
79020;DHT22;68422;44.714;37.756;2023-04-03T00:48:48;25.74;39.55
79020;DHT22;68422;44.714;37.756;2023-04-03T00:49:51;25.74;39.45
79020;DHT22;68422;44.714;37.756;2023-04-03T00:50:53;25.75;39.54
79020;DHT22;68422;44.714;37.756;2023-04-03T00:51:56;25.73;39.52
79020;DHT22;68422;44.714;37.756;2023-04-03T00:52:58;25.73;39.48
79020;DHT22;68422;44.714;37.756;2023-04-03T00:54:02;25.75;39.53
79020;DHT22;68422;44.714;37.756;2023-04-03T00:55:07;25.74;39.53
79020;DHT22;68422;44.714;37.756;2023-04-03T00:56:13;25.77;39.49
79020;DHT22;68422;44.714;37.756;2023-04-03T00:57:17;25.78;39.44
79020;DHT22;68422;44.714;37.756;2023-04-03T00:58:22;25.77;39.44
79020;DHT22;68422;44.714;37.756;2023-04-03T00:59:31;25.75;39.50
79020;DHT22;68422;44.714;37.756;2023-04-03T01:00:37;25.73;39.54
79020;DHT22;68422;44.714;37.756;2023-04-03T01:01:39;25.75;39.52
79020;DHT22;68422;44.714;37.756;2023-04-03T01:02:41;25.75;39.47
79020;DHT22;68422;44.714;37.756;2023-04-03T01:03:43;25.78;39.43
79020;DHT22;68422;44.714;37.756;2023-04-03T01:04:45;25.78;39.36
79020;DHT22;68422;44.714;37.756;2023-04-03T01:05:48;25.82;39.41
79020;DHT22;68422;44.714;37.756;2023-04-03T01:06:50;25.81;39.37
79020;DHT22;68422;44.714;37.756;2023-04-03T01:07:52;25.84;39.22
79020;DHT22;68422;44.714;37.756;2023-04-03T01:08:55;25.82;39.30
79020;DHT22;68422;44.714;37.756;2023-04-03T01:09:59;25.84;39.33
79020;DHT22;68422;44.714;37.756;2023-04-03T01:11:01;25.87;39.28
79020;DHT22;68422;44.714;37.756;2023-04-03T01:12:23;25.82;39.40
79020;DHT22;68422;44.714;37.756;2023-04-03T01:13:29;25.81;39.36
79020;DHT22;68422;44.714;37.756;2023-04-03T01:14:32;25.82;39.30
79020;DHT22;68422;44.714;37.756;2023-04-03T01:15:33;25.81;39.31
79020;DHT22;68422;44.714;37.756;2023-04-03T01:16:36;25.81;39.30
79020;DHT22;68422;44.714;37.756;2023-04-03T01:17:52;25.84;39.32
79020;DHT22;68422;44.714;37.756;2023-04-03T01:18:53;25.82;39.35
79020;DHT22;68422;44.714;37.756;2023-04-03T01:22:01;25.73;39.55
79020;DHT22;68422;44.714;37.756;2023-04-03T01:24:25;25.74;39.46
79020;DHT22;68422;44.714;37.756;2023-04-03T01:25:29;25.73;39.47
79020;DHT22;68422;44.714;37.756;2023-04-03T01:26:32;25.73;39.43
79020;DHT22;68422;44.714;37.756;2023-04-03T01:27:34;25.71;39.49
79020;DHT22;68422;44.714;37.756;2023-04-03T01:28:36;25.74;39.53
79020;DHT22;68422;44.714;37.756;2023-04-03T01:29:37;25.75;39.50
79020;DHT22;68422;44.714;37.756;2023-04-03T01:30:45;25.77;39.53
79020;DHT22;68422;44.714;37.756;2023-04-03T01:32:50;25.74;40.05
79020;DHT22;68422;44.714;37.756;2023-04-03T01:33:52;25.67;39.68
79020;DHT22;68422;44.714;37.756;2023-04-03T01:34:53;25.64;39.48
79020;DHT22;68422;44.714;37.756;2023-04-03T01:35:55;25.63;39.30
79020;DHT22;68422;44.714;37.756;2023-04-03T01:36:57;25.67;39.31
79020;DHT22;68422;44.714;37.756;2023-04-03T01:37:58;25.63;39.52
79020;DHT22;68422;44.714;37.756;2023-04-03T01:39:00;25.66;39.43
79020;DHT22;68422;44.714;37.756;2023-04-03T01:40:04;25.67;39.13
79020;DHT22;68422;44.714;37.756;2023-04-03T01:41:07;25.61;39.24
79020;DHT22;68422;44.714;37.756;2023-04-03T01:42:08;25.57;39.28
79020;DHT22;68422;44.714;37.756;2023-04-03T01:43:14;25.56;39.54
79020;DHT22;68422;44.714;37.756;2023-04-03T01:44:15;25.54;39.38
79020;DHT22;68422;44.714;37.756;2023-04-03T01:45:17;25.50;39.45
79020;DHT22;68422;44.714;37.756;2023-04-03T01:46:19;25.44;39.56
79020;DHT22;68422;44.714;37.756;2023-04-03T01:47:22;25.47;39.61
79020;DHT22;68422;44.714;37.756;2023-04-03T01:48:24;25.47;39.50
79020;DHT22;68422;44.714;37.756;2023-04-03T01:49:25;25.46;39.42
79020;DHT22;68422;44.714;37.756;2023-04-03T01:50:27;25.46;39.48
79020;DHT22;68422;44.714;37.756;2023-04-03T01:51:28;25.41;39.46
79020;DHT22;68422;44.714;37.756;2023-04-03T01:52:29;25.40;39.69
79020;DHT22;68422;44.714;37.756;2023-04-03T01:53:31;25.40;39.75
79020;DHT22;68422;44.714;37.756;2023-04-03T01:54:33;25.40;39.61
79020;DHT22;68422;44.714;37.756;2023-04-03T01:55:34;25.44;39.63
79020;DHT22;68422;44.714;37.756;2023-04-03T01:56:36;25.41;39.48
79020;DHT22;68422;44.714;37.756;2023-04-03T01:57:37;25.40;39.63
79020;DHT22;68422;44.714;37.756;2023-04-03T01:58:38;25.36;39.77
79020;DHT22;68422;44.714;37.756;2023-04-03T01:59:40;25.33;39.60
79020;DHT22;68422;44.714;37.756;2023-04-03T02:00:42;25.34;39.72
79020;DHT22;68422;44.714;37.756;2023-04-03T02:01:43;25.37;39.74
79020;DHT22;68422;44.714;37.756;2023-04-03T02:02:46;25.38;39.81
79020;DHT22;68422;44.714;37.756;2023-04-03T02:03:48;25.30;39.88
79020;DHT22;68422;44.714;37.756;2023-04-03T02:04:49;25.31;39.80
79020;DHT22;68422;44.714;37.756;2023-04-03T02:05:51;25.24;39.85
79020;DHT22;68422;44.714;37.756;2023-04-03T02:06:52;25.26;39.79
79020;DHT22;68422;44.714;37.756;2023-04-03T02:07:53;25.22;40.03
79020;DHT22;68422;44.714;37.756;2023-04-03T02:08:54;25.23;39.96
79020;DHT22;68422;44.714;37.756;2023-04-03T02:09:56;25.24;39.90
79020;DHT22;68422;44.714;37.756;2023-04-03T02:10:57;25.26;39.92
79020;DHT22;68422;44.714;37.756;2023-04-03T02:11:59;25.24;39.95
79020;DHT22;68422;44.714;37.756;2023-04-03T02:13:00;25.27;39.86
79020;DHT22;68422;44.714;37.756;2023-04-03T02:14:01;25.30;39.93
79020;DHT22;68422;44.714;37.756;2023-04-03T02:15:04;25.33;39.90
79020;DHT22;68422;44.714;37.756;2023-04-03T02:16:07;25.34;39.79
79020;DHT22;68422;44.714;37.756;2023-04-03T02:17:09;25.36;39.78
79020;DHT22;68422;44.714;37.756;2023-04-03T02:18:11;25.34;39.65
79020;DHT22;68422;44.714;37.756;2023-04-03T02:19:12;25.34;39.61
79020;DHT22;68422;44.714;37.756;2023-04-03T02:20:15;25.33;39.69
79020;DHT22;68422;44.714;37.756;2023-04-03T02:21:16;25.28;39.85
79020;DHT22;68422;44.714;37.756;2023-04-03T02:22:17;25.23;39.93
79020;DHT22;68422;44.714;37.756;2023-04-03T02:23:20;25.26;39.82
79020;DHT22;68422;44.714;37.756;2023-04-03T02:24:21;25.31;39.73
79020;DHT22;68422;44.714;37.756;2023-04-03T02:25:23;25.34;39.57
79020;DHT22;68422;44.714;37.756;2023-04-03T02:26:25;25.38;39.64
79020;DHT22;68422;44.714;37.756;2023-04-03T02:27:27;25.34;39.73
79020;DHT22;68422;44.714;37.756;2023-04-03T02:28:28;25.27;39.78
79020;DHT22;68422;44.714;37.756;2023-04-03T02:29:30;25.22;39.90
79020;DHT22;68422;44.714;37.756;2023-04-03T02:30:32;25.24;39.96
79020;DHT22;68422;44.714;37.756;2023-04-03T02:31:33;25.19;40.03
79020;DHT22;68422;44.714;37.756;2023-04-03T02:32:36;25.17;40.06
79020;DHT22;68422;44.714;37.756;2023-04-03T02:33:38;25.19;39.91
79020;DHT22;68422;44.714;37.756;2023-04-03T02:34:42;25.15;39.97
79020;DHT22;68422;44.714;37.756;2023-04-03T02:35:45;25.15;40.14
79020;DHT22;68422;44.714;37.756;2023-04-03T02:36:54;25.13;40.05
79020;DHT22;68422;44.714;37.756;2023-04-03T02:37:56;25.19;39.97
79020;DHT22;68422;44.714;37.756;2023-04-03T02:38:57;25.16;40.08
79020;DHT22;68422;44.714;37.756;2023-04-03T02:39:59;25.17;40.07
79020;DHT22;68422;44.714;37.756;2023-04-03T02:41:02;25.19;39.82
79020;DHT22;68422;44.714;37.756;2023-04-03T02:42:05;25.15;39.95
79020;DHT22;68422;44.714;37.756;2023-04-03T02:43:07;25.19;40.04
79020;DHT22;68422;44.714;37.756;2023-04-03T02:44:11;25.22;39.88
79020;DHT22;68422;44.714;37.756;2023-04-03T02:45:13;25.23;39.85
79020;DHT22;68422;44.714;37.756;2023-04-03T02:46:14;25.23;39.88
79020;DHT22;68422;44.714;37.756;2023-04-03T02:47:16;25.17;39.99
79020;DHT22;68422;44.714;37.756;2023-04-03T02:48:18;25.10;40.01
79020;DHT22;68422;44.714;37.756;2023-04-03T02:49:19;25.07;40.29
79020;DHT22;68422;44.714;37.756;2023-04-03T02:50:21;25.10;40.19
79020;DHT22;68422;44.714;37.756;2023-04-03T02:51:22;25.13;40.10
79020;DHT22;68422;44.714;37.756;2023-04-03T02:52:24;25.13;40.05
79020;DHT22;68422;44.714;37.756;2023-04-03T02:53:28;25.10;40.04
79020;DHT22;68422;44.714;37.756;2023-04-03T02:54:29;25.09;40.11
79020;DHT22;68422;44.714;37.756;2023-04-03T02:55:34;25.13;40.05
79020;DHT22;68422;44.714;37.756;2023-04-03T02:56:36;25.10;40.05
79020;DHT22;68422;44.714;37.756;2023-04-03T02:57:37;25.09;40.15
79020;DHT22;68422;44.714;37.756;2023-04-03T02:58:38;25.13;40.15
79020;DHT22;68422;44.714;37.756;2023-04-03T02:59:41;25.12;40.06
79020;DHT22;68422;44.714;37.756;2023-04-03T03:00:44;25.09;40.08
79020;DHT22;68422;44.714;37.756;2023-04-03T03:01:45;25.02;40.25
79020;DHT22;68422;44.714;37.756;2023-04-03T03:02:48;25.05;40.21
79020;DHT22;68422;44.714;37.756;2023-04-03T03:03:50;25.05;40.13
79020;DHT22;68422;44.714;37.756;2023-04-03T03:04:51;25.06;40.19
79020;DHT22;68422;44.714;37.756;2023-04-03T03:06:06;25.10;40.37
79020;DHT22;68422;44.714;37.756;2023-04-03T03:07:08;25.13;40.05
79020;DHT22;68422;44.714;37.756;2023-04-03T03:08:09;25.12;40.05
79020;DHT22;68422;44.714;37.756;2023-04-03T03:09:10;25.13;40.02
79020;DHT22;68422;44.714;37.756;2023-04-03T03:10:13;25.13;40.06
79020;DHT22;68422;44.714;37.756;2023-04-03T03:11:15;25.12;40.06
79020;DHT22;68422;44.714;37.756;2023-04-03T03:12:16;25.16;40.09
79020;DHT22;68422;44.714;37.756;2023-04-03T03:13:22;25.20;39.81
79020;DHT22;68422;44.714;37.756;2023-04-03T03:14:24;25.17;39.92
79020;DHT22;68422;44.714;37.756;2023-04-03T03:15:25;25.12;39.98
79020;DHT22;68422;44.714;37.756;2023-04-03T03:16:26;25.09;39.98
79020;DHT22;68422;44.714;37.756;2023-04-03T03:17:28;25.12;40.05
79020;DHT22;68422;44.714;37.756;2023-04-03T03:18:29;25.10;39.97
79020;DHT22;68422;44.714;37.756;2023-04-03T03:19:31;25.05;40.10
79020;DHT22;68422;44.714;37.756;2023-04-03T03:20:32;24.97;40.19
79020;DHT22;68422;44.714;37.756;2023-04-03T03:21:33;24.97;40.67
79020;DHT22;68422;44.714;37.756;2023-04-03T03:22:36;24.96;40.67
79020;DHT22;68422;44.714;37.756;2023-04-03T03:23:38;25.05;40.47
79020;DHT22;68422;44.714;37.756;2023-04-03T03:24:40;25.10;40.20
79020;DHT22;68422;44.714;37.756;2023-04-03T03:25:42;25.20;39.99
79020;DHT22;68422;44.714;37.756;2023-04-03T03:26:43;25.24;39.90
79020;DHT22;68422;44.714;37.756;2023-04-03T03:27:44;25.30;39.71
79020;DHT22;68422;44.714;37.756;2023-04-03T03:28:46;25.34;39.63
79020;DHT22;68422;44.714;37.756;2023-04-03T03:29:47;25.31;39.64
79020;DHT22;68422;44.714;37.756;2023-04-03T03:30:49;25.40;39.55
79020;DHT22;68422;44.714;37.756;2023-04-03T03:31:51;25.41;39.32
79020;DHT22;68422;44.714;37.756;2023-04-03T03:32:53;25.43;39.44
79020;DHT22;68422;44.714;37.756;2023-04-03T03:33:55;25.46;39.26
79020;DHT22;68422;44.714;37.756;2023-04-03T03:34:57;25.46;39.24
79020;DHT22;68422;44.714;37.756;2023-04-03T03:35:59;25.47;39.24
79020;DHT22;68422;44.714;37.756;2023-04-03T03:37:01;25.43;39.29
79020;DHT22;68422;44.714;37.756;2023-04-03T03:38:03;25.48;39.47
79020;DHT22;68422;44.714;37.756;2023-04-03T03:39:06;25.51;39.30
79020;DHT22;68422;44.714;37.756;2023-04-03T03:40:08;25.50;39.15
79020;DHT22;68422;44.714;37.756;2023-04-03T03:41:09;25.50;39.16
79020;DHT22;68422;44.714;37.756;2023-04-03T03:42:11;25.48;39.26
79020;DHT22;68422;44.714;37.756;2023-04-03T03:43:13;25.48;39.23
79020;DHT22;68422;44.714;37.756;2023-04-03T03:44:14;25.41;39.29
79020;DHT22;68422;44.714;37.756;2023-04-03T03:45:16;25.37;39.54
79020;DHT22;68422;44.714;37.756;2023-04-03T03:46:17;25.30;39.59
79020;DHT22;68422;44.714;37.756;2023-04-03T03:47:18;25.36;39.65
79020;DHT22;68422;44.714;37.756;2023-04-03T03:48:20;25.33;39.55
79020;DHT22;68422;44.714;37.756;2023-04-03T03:49:22;25.31;39.53
79020;DHT22;68422;44.714;37.756;2023-04-03T03:50:23;25.31;39.72
79020;DHT22;68422;44.714;37.756;2023-04-03T03:51:25;25.31;39.59
79020;DHT22;68422;44.714;37.756;2023-04-03T03:52:26;25.34;39.52
79020;DHT22;68422;44.714;37.756;2023-04-03T03:53:28;25.33;39.64
79020;DHT22;68422;44.714;37.756;2023-04-03T03:54:34;25.36;39.54
79020;DHT22;68422;44.714;37.756;2023-04-03T03:55:35;25.34;39.52
79020;DHT22;68422;44.714;37.756;2023-04-03T03:56:36;25.30;39.58
79020;DHT22;68422;44.714;37.756;2023-04-03T03:57:38;25.22;39.65
79020;DHT22;68422;44.714;37.756;2023-04-03T03:58:40;25.15;39.92
79020;DHT22;68422;44.714;37.756;2023-04-03T03:59:41;25.17;40.06
79020;DHT22;68422;44.714;37.756;2023-04-03T04:00:43;25.19;39.89
79020;DHT22;68422;44.714;37.756;2023-04-03T04:01:45;25.20;39.88
79020;DHT22;68422;44.714;37.756;2023-04-03T04:02:46;25.22;39.78
79020;DHT22;68422;44.714;37.756;2023-04-03T04:03:51;25.23;39.90
79020;DHT22;68422;44.714;37.756;2023-04-03T04:04:58;25.16;39.93
79020;DHT22;68422;44.714;37.756;2023-04-03T04:05:59;25.20;39.92
79020;DHT22;68422;44.714;37.756;2023-04-03T04:07:02;25.27;39.71
79020;DHT22;68422;44.714;37.756;2023-04-03T04:08:04;25.33;39.61
79020;DHT22;68422;44.714;37.756;2023-04-03T04:09:05;25.33;39.50
79020;DHT22;68422;44.714;37.756;2023-04-03T04:10:07;25.34;39.42
79020;DHT22;68422;44.714;37.756;2023-04-03T04:11:09;25.33;39.51
79020;DHT22;68422;44.714;37.756;2023-04-03T04:12:11;25.27;39.63
79020;DHT22;68422;44.714;37.756;2023-04-03T04:13:13;25.24;39.63
79020;DHT22;68422;44.714;37.756;2023-04-03T04:14:14;25.17;39.86
79020;DHT22;68422;44.714;37.756;2023-04-03T04:15:17;25.15;40.13
79020;DHT22;68422;44.714;37.756;2023-04-03T04:16:19;25.09;40.06
79020;DHT22;68422;44.714;37.756;2023-04-03T04:17:21;25.12;40.06
79020;DHT22;68422;44.714;37.756;2023-04-03T04:18:22;25.05;40.15
79020;DHT22;68422;44.714;37.756;2023-04-03T04:19:24;24.99;40.22
79020;DHT22;68422;44.714;37.756;2023-04-03T04:20:26;24.92;40.33
79020;DHT22;68422;44.714;37.756;2023-04-03T04:21:28;24.89;40.48
79020;DHT22;68422;44.714;37.756;2023-04-03T04:22:29;24.90;40.51
79020;DHT22;68422;44.714;37.756;2023-04-03T04:23:30;24.95;40.47
79020;DHT22;68422;44.714;37.756;2023-04-03T04:24:33;25.03;40.36
79020;DHT22;68422;44.714;37.756;2023-04-03T04:25:36;25.10;40.02
79020;DHT22;68422;44.714;37.756;2023-04-03T04:26:39;25.17;39.89
79020;DHT22;68422;44.714;37.756;2023-04-03T04:27:41;25.26;39.74
79020;DHT22;68422;44.714;37.756;2023-04-03T04:28:43;25.26;39.76
79020;DHT22;68422;44.714;37.756;2023-04-03T04:29:44;25.22;39.96
79020;DHT22;68422;44.714;37.756;2023-04-03T04:30:45;25.24;39.97
79020;DHT22;68422;44.714;37.756;2023-04-03T04:31:48;25.22;39.91
79020;DHT22;68422;44.714;37.756;2023-04-03T04:32:49;25.15;40.08
79020;DHT22;68422;44.714;37.756;2023-04-03T04:33:51;25.10;40.45
79020;DHT22;68422;44.714;37.756;2023-04-03T04:34:53;25.03;40.46
79020;DHT22;68422;44.714;37.756;2023-04-03T04:35:54;25.05;40.61
79020;DHT22;68422;44.714;37.756;2023-04-03T04:36:56;25.07;40.63
79020;DHT22;68422;44.714;37.756;2023-04-03T04:37:58;25.07;40.50
79020;DHT22;68422;44.714;37.756;2023-04-03T04:38:59;25.03;40.58
79020;DHT22;68422;44.714;37.756;2023-04-03T04:40:02;24.99;40.85
79020;DHT22;68422;44.714;37.756;2023-04-03T04:41:04;24.97;40.82
79020;DHT22;68422;44.714;37.756;2023-04-03T04:42:06;24.99;40.88
79020;DHT22;68422;44.714;37.756;2023-04-03T04:43:09;25.07;40.72
79020;DHT22;68422;44.714;37.756;2023-04-03T04:44:15;25.17;40.51
79020;DHT22;68422;44.714;37.756;2023-04-03T04:45:17;25.23;40.36
79020;DHT22;68422;44.714;37.756;2023-04-03T04:46:20;25.31;40.19
79020;DHT22;68422;44.714;37.756;2023-04-03T04:47:28;25.34;40.19
79020;DHT22;68422;44.714;37.756;2023-04-03T04:48:29;25.37;40.05
79020;DHT22;68422;44.714;37.756;2023-04-03T04:49:31;25.46;39.97
79020;DHT22;68422;44.714;37.756;2023-04-03T04:50:32;25.50;39.74
79020;DHT22;68422;44.714;37.756;2023-04-03T04:51:34;25.58;39.68
79020;DHT22;68422;44.714;37.756;2023-04-03T04:52:36;25.58;39.65
79020;DHT22;68422;44.714;37.756;2023-04-03T04:53:38;25.63;39.62
79020;DHT22;68422;44.714;37.756;2023-04-03T04:54:39;25.66;39.49
79020;DHT22;68422;44.714;37.756;2023-04-03T04:55:41;25.68;39.48
79020;DHT22;68422;44.714;37.756;2023-04-03T04:56:43;25.66;39.47
79020;DHT22;68422;44.714;37.756;2023-04-03T04:57:45;25.66;39.42
79020;DHT22;68422;44.714;37.756;2023-04-03T04:58:48;25.66;39.41
79020;DHT22;68422;44.714;37.756;2023-04-03T04:59:50;25.68;39.36
79020;DHT22;68422;44.714;37.756;2023-04-03T05:00:59;25.68;39.40
79020;DHT22;68422;44.714;37.756;2023-04-03T05:02:01;25.73;39.35
79020;DHT22;68422;44.714;37.756;2023-04-03T05:03:02;25.73;39.32
79020;DHT22;68422;44.714;37.756;2023-04-03T05:04:04;25.71;39.33
79020;DHT22;68422;44.714;37.756;2023-04-03T05:05:06;25.74;39.30
79020;DHT22;68422;44.714;37.756;2023-04-03T05:06:08;25.67;39.37
79020;DHT22;68422;44.714;37.756;2023-04-03T05:07:10;25.67;39.40
79020;DHT22;68422;44.714;37.756;2023-04-03T05:08:12;25.71;39.35
79020;DHT22;68422;44.714;37.756;2023-04-03T05:09:16;25.74;39.29
79020;DHT22;68422;44.714;37.756;2023-04-03T05:10:18;25.71;39.34
79020;DHT22;68422;44.714;37.756;2023-04-03T05:11:21;25.74;39.26
79020;DHT22;68422;44.714;37.756;2023-04-03T05:12:25;25.74;39.26
79020;DHT22;68422;44.714;37.756;2023-04-03T05:13:31;25.77;39.24
79020;DHT22;68422;44.714;37.756;2023-04-03T05:14:32;25.75;39.21
79020;DHT22;68422;44.714;37.756;2023-04-03T05:15:38;25.80;39.23
79020;DHT22;68422;44.714;37.756;2023-04-03T05:16:39;25.81;39.14
79020;DHT22;68422;44.714;37.756;2023-04-03T05:17:41;25.80;39.14
79020;DHT22;68422;44.714;37.756;2023-04-03T05:18:46;25.77;39.14
79020;DHT22;68422;44.714;37.756;2023-04-03T05:19:52;25.81;39.09
79020;DHT22;68422;44.714;37.756;2023-04-03T05:20:56;25.84;39.01
79020;DHT22;68422;44.714;37.756;2023-04-03T05:21:59;25.89;38.90
79020;DHT22;68422;44.714;37.756;2023-04-03T05:23:03;25.85;38.96
79020;DHT22;68422;44.714;37.756;2023-04-03T05:24:05;25.82;39.02
79020;DHT22;68422;44.714;37.756;2023-04-03T05:25:12;25.82;39.03
79020;DHT22;68422;44.714;37.756;2023-04-03T05:26:17;25.88;38.99
79020;DHT22;68422;44.714;37.756;2023-04-03T05:27:21;25.87;38.97
79020;DHT22;68422;44.714;37.756;2023-04-03T05:28:27;25.88;38.97
79020;DHT22;68422;44.714;37.756;2023-04-03T05:29:29;25.87;39.02
79020;DHT22;68422;44.714;37.756;2023-04-03T05:30:33;25.87;38.95
79020;DHT22;68422;44.714;37.756;2023-04-03T05:31:36;25.88;38.94
79020;DHT22;68422;44.714;37.756;2023-04-03T05:32:38;25.89;38.92
79020;DHT22;68422;44.714;37.756;2023-04-03T05:33:49;25.88;39.01
79020;DHT22;68422;44.714;37.756;2023-04-03T05:34:53;25.88;38.94
79020;DHT22;68422;44.714;37.756;2023-04-03T05:35:54;25.87;38.95
79020;DHT22;68422;44.714;37.756;2023-04-03T05:37:00;25.82;38.98
79020;DHT22;68422;44.714;37.756;2023-04-03T05:38:04;25.87;39.01
79020;DHT22;68422;44.714;37.756;2023-04-03T05:39:07;25.88;38.97
79020;DHT22;68422;44.714;37.756;2023-04-03T05:40:11;25.92;38.86
79020;DHT22;68422;44.714;37.756;2023-04-03T05:41:16;25.94;38.81
79020;DHT22;68422;44.714;37.756;2023-04-03T05:42:20;25.95;38.77
79020;DHT22;68422;44.714;37.756;2023-04-03T05:43:21;25.94;38.78
79020;DHT22;68422;44.714;37.756;2023-04-03T05:44:24;25.95;38.81
79020;DHT22;68422;44.714;37.756;2023-04-03T05:45:26;25.95;38.80
79020;DHT22;68422;44.714;37.756;2023-04-03T05:46:27;25.94;38.75
79020;DHT22;68422;44.714;37.756;2023-04-03T05:47:31;25.97;38.72
79020;DHT22;68422;44.714;37.756;2023-04-03T05:48:32;25.99;38.66
79020;DHT22;68422;44.714;37.756;2023-04-03T05:49:34;25.94;38.74
79020;DHT22;68422;44.714;37.756;2023-04-03T05:50:36;25.98;38.70
79020;DHT22;68422;44.714;37.756;2023-04-03T05:51:43;25.95;38.73
79020;DHT22;68422;44.714;37.756;2023-04-03T05:52:57;25.94;38.76
79020;DHT22;68422;44.714;37.756;2023-04-03T05:54:29;25.98;38.77
79020;DHT22;68422;44.714;37.756;2023-04-03T05:55:57;25.87;38.88
79020;DHT22;68422;44.714;37.756;2023-04-03T05:56:59;25.91;38.81
79020;DHT22;68422;44.714;37.756;2023-04-03T05:58:01;25.91;38.84
79020;DHT22;68422;44.714;37.756;2023-04-03T05:59:02;25.94;38.82
79020;DHT22;68422;44.714;37.756;2023-04-03T06:00:05;25.97;38.75
79020;DHT22;68422;44.714;37.756;2023-04-03T06:01:14;25.99;38.69
79020;DHT22;68422;44.714;37.756;2023-04-03T06:02:21;26.06;38.63
79020;DHT22;68422;44.714;37.756;2023-04-03T06:03:24;26.05;38.56
79020;DHT22;68422;44.714;37.756;2023-04-03T06:04:25;25.99;38.65
79020;DHT22;68422;44.714;37.756;2023-04-03T06:05:27;25.99;38.65
79020;DHT22;68422;44.714;37.756;2023-04-03T06:07:48;26.01;38.68
79020;DHT22;68422;44.714;37.756;2023-04-03T06:08:51;25.98;38.61
79020;DHT22;68422;44.714;37.756;2023-04-03T06:09:52;25.99;38.66
79020;DHT22;68422;44.714;37.756;2023-04-03T06:10:53;26.01;38.65
79020;DHT22;68422;44.714;37.756;2023-04-03T06:11:55;26.02;38.60
79020;DHT22;68422;44.714;37.756;2023-04-03T06:12:58;26.01;38.59
79020;DHT22;68422;44.714;37.756;2023-04-03T06:14:00;25.99;38.64
79020;DHT22;68422;44.714;37.756;2023-04-03T06:15:02;25.99;38.61
79020;DHT22;68422;44.714;37.756;2023-04-03T06:16:05;26.02;38.62
79020;DHT22;68422;44.714;37.756;2023-04-03T06:17:07;26.04;38.59
79020;DHT22;68422;44.714;37.756;2023-04-03T06:18:10;26.01;38.60
79020;DHT22;68422;44.714;37.756;2023-04-03T06:19:12;26.04;38.56
79020;DHT22;68422;44.714;37.756;2023-04-03T06:20:17;26.04;38.55
79020;DHT22;68422;44.714;37.756;2023-04-03T06:21:18;26.01;38.58
79020;DHT22;68422;44.714;37.756;2023-04-03T06:22:20;26.01;38.61
79020;DHT22;68422;44.714;37.756;2023-04-03T06:23:22;26.06;38.58
79020;DHT22;68422;44.714;37.756;2023-04-03T06:24:23;26.06;38.53
79020;DHT22;68422;44.714;37.756;2023-04-03T06:25:26;26.09;38.45
79020;DHT22;68422;44.714;37.756;2023-04-03T06:26:27;26.06;38.49
79020;DHT22;68422;44.714;37.756;2023-04-03T06:27:29;26.09;38.45
79020;DHT22;68422;44.714;37.756;2023-04-03T06:28:30;26.08;38.47
79020;DHT22;68422;44.714;37.756;2023-04-03T06:29:32;26.11;38.44
79020;DHT22;68422;44.714;37.756;2023-04-03T06:30:33;26.09;38.44
79020;DHT22;68422;44.714;37.756;2023-04-03T06:31:35;26.08;38.49
79020;DHT22;68422;44.714;37.756;2023-04-03T06:32:37;26.05;38.52
79020;DHT22;68422;44.714;37.756;2023-04-03T06:33:39;26.09;38.44
79020;DHT22;68422;44.714;37.756;2023-04-03T06:34:40;26.14;38.42
79020;DHT22;68422;44.714;37.756;2023-04-03T06:35:42;26.14;38.42
79020;DHT22;68422;44.714;37.756;2023-04-03T06:36:44;26.12;38.42